SPCAA LIBR-EPKK
Flight info
| Callsign | SPCAA |
|---|---|
| Flight time | N/A |
| Altitude | 30000 |
| Route | ENOXA DCT BEVIS/N0304F290 DCT VEBAR DCT PARAK DCT KEKED/N0301F240 N133 LENOV |
| Aircraft | TBM8/L-SDFGRWY/S |
Departure
| Time | 2026-04-18 05:53 |
|---|---|
| Airport | Brindisi Airport (LIBR) |
Arrival
| Time | N/A |
|---|---|
| Airport | Kraków John Paul II International Airport (EPKK) |
| Time | Latitude | Longitude | Altitude | Speed | Heading |
|---|---|---|---|---|---|
| 2026-04-18 05:51 | 40.65972 | 17.94527 | 33 ft | 0 kts | 317° |
| 2026-04-18 05:52 | 40.66127 | 17.94339 | 34 ft | 59 kts | 317° |
| 2026-04-18 05:52 | 40.66531 | 17.93866 | 119 ft | 91 kts | 323° |
| 2026-04-18 05:53 | 40.67053 | 17.93276 | 381 ft | 105 kts | 313° |
| 2026-04-18 05:53 | 40.67564 | 17.92552 | 730 ft | 109 kts | 320° |
| 2026-04-18 05:53 | 40.68145 | 17.91887 | 1163 ft | 114 kts | 321° |
| 2026-04-18 05:53 | 40.68725 | 17.91152 | 1573 ft | 116 kts | 324° |
| 2026-04-18 05:54 | 40.69319 | 17.90408 | 1963 ft | 120 kts | 324° |
| 2026-04-18 05:54 | 40.69937 | 17.89633 | 2380 ft | 124 kts | 325° |
| 2026-04-18 05:54 | 40.70573 | 17.88845 | 2797 ft | 127 kts | 325° |
| 2026-04-18 05:54 | 40.71233 | 17.88092 | 3229 ft | 122 kts | 339° |
| 2026-04-18 05:55 | 40.72030 | 17.87828 | 3676 ft | 118 kts | 351° |
| 2026-04-18 05:55 | 40.72817 | 17.87524 | 4118 ft | 119 kts | 347° |
| 2026-04-18 05:55 | 40.73610 | 17.87205 | 4563 ft | 118 kts | 345° |
| 2026-04-18 05:55 | 40.74381 | 17.86879 | 4992 ft | 118 kts | 343° |
| 2026-04-18 05:56 | 40.74901 | 17.86657 | 5252 ft | 119 kts | 344° |
| 2026-04-18 05:56 | 40.75690 | 17.86318 | 5647 ft | 121 kts | 343° |
| 2026-04-18 05:56 | 40.76482 | 17.85976 | 6079 ft | 120 kts | 343° |
| 2026-04-18 05:56 | 40.77279 | 17.85629 | 6468 ft | 121 kts | 343° |
| 2026-04-18 05:57 | 40.78899 | 17.84925 | 7235 ft | 122 kts | 343° |
| 2026-04-18 05:57 | 40.79716 | 17.84570 | 7581 ft | 126 kts | 342° |
| 2026-04-18 05:57 | 40.80555 | 17.84204 | 7948 ft | 128 kts | 342° |
| 2026-04-18 05:58 | 40.81404 | 17.83837 | 8336 ft | 129 kts | 342° |
| 2026-04-18 05:58 | 40.82289 | 17.83893 | 8709 ft | 131 kts | 14° |
| 2026-04-18 05:58 | 40.83169 | 17.84215 | 9118 ft | 132 kts | 9° |
| 2026-04-18 05:58 | 40.84064 | 17.84493 | 9562 ft | 132 kts | 11° |
| 2026-04-18 05:59 | 40.84962 | 17.84781 | 9998 ft | 133 kts | 11° |
| 2026-04-18 05:59 | 40.85867 | 17.85068 | 10387 ft | 134 kts | 11° |
| 2026-04-18 05:59 | 40.86777 | 17.85356 | 10774 ft | 135 kts | 10° |
| 2026-04-18 05:59 | 40.87699 | 17.85646 | 11158 ft | 137 kts | 10° |
| 2026-04-18 06:00 | 40.88627 | 17.85940 | 11549 ft | 138 kts | 10° |
| 2026-04-18 06:00 | 40.89566 | 17.86235 | 11944 ft | 139 kts | 10° |
| 2026-04-18 06:00 | 40.90510 | 17.86531 | 12339 ft | 140 kts | 10° |
| 2026-04-18 06:00 | 40.91460 | 17.86832 | 12729 ft | 141 kts | 10° |
| 2026-04-18 06:01 | 40.92418 | 17.87133 | 13115 ft | 142 kts | 10° |
| 2026-04-18 06:01 | 40.93382 | 17.87437 | 13506 ft | 143 kts | 10° |
| 2026-04-18 06:01 | 40.94348 | 17.87741 | 13886 ft | 143 kts | 9° |
| 2026-04-18 06:01 | 40.95315 | 17.88046 | 14238 ft | 143 kts | 9° |
| 2026-04-18 06:02 | 40.96284 | 17.88353 | 14590 ft | 143 kts | 9° |
| 2026-04-18 06:02 | 40.97252 | 17.88658 | 14949 ft | 143 kts | 9° |
| 2026-04-18 06:02 | 40.98217 | 17.88962 | 15316 ft | 142 kts | 9° |
| 2026-04-18 06:02 | 40.99180 | 17.89263 | 15679 ft | 142 kts | 9° |
| 2026-04-18 06:03 | 41.00126 | 17.89562 | 16045 ft | 141 kts | 8° |
| 2026-04-18 06:03 | 41.01077 | 17.89860 | 16420 ft | 140 kts | 8° |
| 2026-04-18 06:03 | 41.02032 | 17.90164 | 16751 ft | 142 kts | 8° |
| 2026-04-18 06:03 | 41.02997 | 17.90472 | 17087 ft | 143 kts | 8° |
| 2026-04-18 06:04 | 41.03971 | 17.90781 | 17430 ft | 145 kts | 8° |
| 2026-04-18 06:04 | 41.04953 | 17.91093 | 17778 ft | 146 kts | 8° |
| 2026-04-18 06:04 | 41.05942 | 17.91406 | 18123 ft | 146 kts | 8° |
| 2026-04-18 06:04 | 41.06934 | 17.91719 | 18446 ft | 147 kts | 8° |
| 2026-04-18 06:05 | 41.07928 | 17.92035 | 18751 ft | 147 kts | 8° |
| 2026-04-18 06:05 | 41.08922 | 17.92350 | 19059 ft | 147 kts | 8° |
| 2026-04-18 06:05 | 41.09914 | 17.92664 | 19370 ft | 146 kts | 8° |
| 2026-04-18 06:05 | 41.10902 | 17.92977 | 19684 ft | 146 kts | 8° |
| 2026-04-18 06:06 | 41.11886 | 17.93289 | 20003 ft | 145 kts | 8° |
| 2026-04-18 06:06 | 41.12868 | 17.93600 | 20305 ft | 145 kts | 8° |
| 2026-04-18 06:06 | 41.13850 | 17.93912 | 20604 ft | 145 kts | 7° |
| 2026-04-18 06:06 | 41.14832 | 17.94224 | 20907 ft | 145 kts | 7° |
| 2026-04-18 06:07 | 41.15814 | 17.94536 | 21210 ft | 145 kts | 7° |
| 2026-04-18 06:07 | 41.16792 | 17.94847 | 21517 ft | 144 kts | 7° |
| 2026-04-18 06:07 | 41.17763 | 17.95154 | 21828 ft | 144 kts | 7° |
| 2026-04-18 06:07 | 41.18733 | 17.95463 | 22142 ft | 142 kts | 7° |
| 2026-04-18 06:08 | 41.19692 | 17.95767 | 22465 ft | 141 kts | 7° |
| 2026-04-18 06:08 | 41.20638 | 17.96068 | 22784 ft | 139 kts | 7° |
| 2026-04-18 06:08 | 41.21570 | 17.96363 | 23104 ft | 136 kts | 6° |
| 2026-04-18 06:08 | 41.22485 | 17.96654 | 23426 ft | 134 kts | 6° |
| 2026-04-18 06:09 | 41.23383 | 17.96939 | 23687 ft | 133 kts | 6° |
| 2026-04-18 06:09 | 41.24266 | 17.97221 | 23910 ft | 132 kts | 6° |
| 2026-04-18 06:09 | 41.25169 | 17.97510 | 24142 ft | 131 kts | 6° |
| 2026-04-18 06:09 | 41.26040 | 17.97786 | 24368 ft | 130 kts | 6° |
| 2026-04-18 06:10 | 41.26923 | 17.98067 | 24605 ft | 128 kts | 6° |
| 2026-04-18 06:10 | 41.27769 | 17.98337 | 24834 ft | 125 kts | 5° |
| 2026-04-18 06:10 | 41.28608 | 17.98604 | 25065 ft | 123 kts | 6° |
| 2026-04-18 06:10 | 41.29423 | 17.98865 | 25298 ft | 119 kts | 5° |
| 2026-04-18 06:11 | 41.30211 | 17.99114 | 25528 ft | 114 kts | 5° |
| 2026-04-18 06:11 | 41.30997 | 17.99363 | 25665 ft | 116 kts | 5° |
| 2026-04-18 06:11 | 41.31779 | 17.99615 | 25836 ft | 115 kts | 5° |
| 2026-04-18 06:11 | 41.32559 | 17.99864 | 25987 ft | 115 kts | 5° |
| 2026-04-18 06:12 | 41.33341 | 18.00115 | 26140 ft | 116 kts | 5° |
| 2026-04-18 06:12 | 41.34125 | 18.00367 | 26293 ft | 116 kts | 5° |
| 2026-04-18 06:12 | 41.34910 | 18.00617 | 26448 ft | 116 kts | 5° |
| 2026-04-18 06:12 | 41.35697 | 18.00869 | 26596 ft | 116 kts | 5° |
| 2026-04-18 06:13 | 41.36485 | 18.01121 | 26744 ft | 117 kts | 5° |
| 2026-04-18 06:13 | 41.37276 | 18.01373 | 26895 ft | 117 kts | 5° |
| 2026-04-18 06:13 | 41.38069 | 18.01626 | 27048 ft | 117 kts | 5° |
| 2026-04-18 06:13 | 41.38864 | 18.01880 | 27194 ft | 118 kts | 5° |
| 2026-04-18 06:14 | 41.39661 | 18.02135 | 27335 ft | 118 kts | 5° |
| 2026-04-18 06:14 | 41.40461 | 18.02390 | 27484 ft | 118 kts | 5° |
| 2026-04-18 06:14 | 41.41262 | 18.02648 | 27631 ft | 119 kts | 4° |
| 2026-04-18 06:14 | 41.42065 | 18.02904 | 27775 ft | 119 kts | 5° |
| 2026-04-18 06:15 | 41.42870 | 18.03162 | 27919 ft | 119 kts | 5° |
| 2026-04-18 06:15 | 41.43677 | 18.03420 | 28064 ft | 119 kts | 4° |
| 2026-04-18 06:15 | 41.44486 | 18.03680 | 28208 ft | 120 kts | 4° |
| 2026-04-18 06:15 | 41.45297 | 18.03938 | 28349 ft | 120 kts | 4° |
| 2026-04-18 06:16 | 41.46109 | 18.04199 | 28491 ft | 120 kts | 5° |
| 2026-04-18 06:16 | 41.46924 | 18.04460 | 28635 ft | 121 kts | 4° |
| 2026-04-18 06:16 | 41.47741 | 18.04724 | 28775 ft | 121 kts | 4° |
| 2026-04-18 06:16 | 41.48560 | 18.04985 | 28913 ft | 121 kts | 4° |
| 2026-04-18 06:17 | 41.49382 | 18.05249 | 29054 ft | 122 kts | 4° |
| 2026-04-18 06:17 | 41.50205 | 18.05512 | 29192 ft | 122 kts | 5° |
| 2026-04-18 06:17 | 41.51030 | 18.05777 | 29329 ft | 122 kts | 4° |
| 2026-04-18 06:17 | 41.51857 | 18.06043 | 29463 ft | 122 kts | 4° |
| 2026-04-18 06:18 | 41.52685 | 18.06309 | 29596 ft | 123 kts | 4° |
| 2026-04-18 06:18 | 41.53516 | 18.06577 | 29728 ft | 123 kts | 4° |
| 2026-04-18 06:18 | 41.54351 | 18.06845 | 29859 ft | 123 kts | 4° |
| 2026-04-18 06:18 | 41.55185 | 18.07112 | 29984 ft | 124 kts | 4° |
| 2026-04-18 06:19 | 41.56058 | 18.07394 | 29993 ft | 133 kts | 5° |
| 2026-04-18 06:19 | 41.56988 | 18.07695 | 29998 ft | 142 kts | 6° |
| 2026-04-18 06:19 | 41.57973 | 18.08015 | 30006 ft | 153 kts | 6° |
| 2026-04-18 06:19 | 41.59044 | 18.08362 | 30001 ft | 164 kts | 6° |
| 2026-04-18 06:20 | 41.60185 | 18.08728 | 30000 ft | 174 kts | 7° |
| 2026-04-18 06:20 | 41.61395 | 18.09117 | 29999 ft | 184 kts | 7° |
| 2026-04-18 06:20 | 41.62672 | 18.09527 | 29998 ft | 193 kts | 7° |
| 2026-04-18 06:20 | 41.64005 | 18.09956 | 30000 ft | 202 kts | 7° |
| 2026-04-18 06:21 | 41.65398 | 18.10405 | 30001 ft | 209 kts | 8° |
| 2026-04-18 06:21 | 41.66838 | 18.10869 | 30001 ft | 216 kts | 8° |
| 2026-04-18 06:21 | 41.68318 | 18.11346 | 29999 ft | 222 kts | 8° |
| 2026-04-18 06:21 | 41.69839 | 18.11837 | 29998 ft | 227 kts | 8° |
| 2026-04-18 06:22 | 41.71397 | 18.12341 | 29998 ft | 232 kts | 8° |
| 2026-04-18 06:22 | 41.72980 | 18.12853 | 30001 ft | 236 kts | 8° |
| 2026-04-18 06:22 | 41.74585 | 18.13371 | 29999 ft | 239 kts | 8° |
| 2026-04-18 06:22 | 41.76218 | 18.13899 | 30001 ft | 242 kts | 8° |
| 2026-04-18 06:23 | 41.77866 | 18.14433 | 30000 ft | 245 kts | 8° |
| 2026-04-18 06:23 | 41.79526 | 18.14970 | 29998 ft | 247 kts | 8° |
| 2026-04-18 06:23 | 41.81203 | 18.15515 | 30001 ft | 248 kts | 8° |
| 2026-04-18 06:23 | 41.82882 | 18.16060 | 29996 ft | 249 kts | 8° |
| 2026-04-18 06:24 | 41.84549 | 18.16601 | 29996 ft | 250 kts | 8° |
| 2026-04-18 06:24 | 41.86245 | 18.17150 | 29997 ft | 251 kts | 8° |
| 2026-04-18 06:24 | 41.87946 | 18.17703 | 29996 ft | 252 kts | 8° |
| 2026-04-18 06:24 | 41.89655 | 18.18259 | 30000 ft | 252 kts | 8° |
| 2026-04-18 06:25 | 41.91364 | 18.18814 | 30001 ft | 253 kts | 8° |
| 2026-04-18 06:25 | 41.93076 | 18.19371 | 30002 ft | 254 kts | 9° |
| 2026-04-18 06:25 | 41.94772 | 18.20074 | 30000 ft | 256 kts | 13° |
| 2026-04-18 06:25 | 41.96467 | 18.20817 | 30009 ft | 256 kts | 12° |
| 2026-04-18 06:26 | 41.98167 | 18.21547 | 29998 ft | 257 kts | 12° |
| 2026-04-18 06:26 | 41.99868 | 18.22278 | 29999 ft | 257 kts | 12° |
| 2026-04-18 06:26 | 42.01567 | 18.23012 | 30000 ft | 256 kts | 12° |
| 2026-04-18 06:26 | 42.03265 | 18.23747 | 29999 ft | 256 kts | 12° |
| 2026-04-18 06:27 | 42.04963 | 18.24480 | 29999 ft | 256 kts | 12° |
| 2026-04-18 06:27 | 42.06661 | 18.25214 | 29999 ft | 256 kts | 12° |
| 2026-04-18 06:27 | 42.08358 | 18.25950 | 29998 ft | 256 kts | 12° |
| 2026-04-18 06:27 | 42.10054 | 18.26685 | 29998 ft | 256 kts | 12° |
| 2026-04-18 06:28 | 42.11750 | 18.27419 | 29987 ft | 256 kts | 12° |
| 2026-04-18 06:28 | 42.13447 | 18.28155 | 29987 ft | 256 kts | 12° |
| 2026-04-18 06:28 | 42.15142 | 18.28890 | 29998 ft | 256 kts | 12° |
| 2026-04-18 06:28 | 42.16836 | 18.29625 | 29984 ft | 256 kts | 12° |
| 2026-04-18 06:29 | 42.18535 | 18.30364 | 29987 ft | 257 kts | 12° |
| 2026-04-18 06:29 | 42.20239 | 18.31105 | 29981 ft | 257 kts | 12° |
| 2026-04-18 06:29 | 42.21937 | 18.31842 | 29981 ft | 257 kts | 12° |
| 2026-04-18 06:29 | 42.23638 | 18.32582 | 29980 ft | 257 kts | 12° |
| 2026-04-18 06:30 | 42.25339 | 18.33323 | 29978 ft | 257 kts | 12° |
| 2026-04-18 06:30 | 42.27040 | 18.34062 | 29975 ft | 257 kts | 12° |
| 2026-04-18 06:30 | 42.28743 | 18.34804 | 29974 ft | 257 kts | 12° |
| 2026-04-18 06:30 | 42.30449 | 18.35549 | 29974 ft | 258 kts | 12° |
| 2026-04-18 06:31 | 42.32157 | 18.36295 | 29978 ft | 258 kts | 12° |
| 2026-04-18 06:31 | 42.33868 | 18.37041 | 29978 ft | 259 kts | 12° |
| 2026-04-18 06:31 | 42.35581 | 18.37789 | 29976 ft | 259 kts | 12° |
| 2026-04-18 06:31 | 42.37297 | 18.38540 | 29975 ft | 259 kts | 12° |
| 2026-04-18 06:32 | 42.38993 | 18.39282 | 29975 ft | 260 kts | 12° |
| 2026-04-18 06:32 | 42.40715 | 18.40035 | 29975 ft | 260 kts | 12° |
| 2026-04-18 06:32 | 42.42443 | 18.40785 | 29974 ft | 262 kts | 12° |
| 2026-04-18 06:32 | 42.44181 | 18.41546 | 29975 ft | 263 kts | 12° |
| 2026-04-18 06:33 | 42.45925 | 18.42315 | 29981 ft | 265 kts | 12° |
| 2026-04-18 06:33 | 42.47682 | 18.43086 | 29980 ft | 266 kts | 12° |
| 2026-04-18 06:33 | 42.49441 | 18.43861 | 29973 ft | 266 kts | 12° |
| 2026-04-18 06:33 | 42.51200 | 18.44632 | 29972 ft | 265 kts | 12° |
| 2026-04-18 06:34 | 42.52974 | 18.45410 | 29763 ft | 272 kts | 12° |
| 2026-04-18 06:34 | 42.54798 | 18.46208 | 29485 ft | 279 kts | 13° |
| 2026-04-18 06:34 | 42.56651 | 18.47025 | 29213 ft | 281 kts | 13° |
| 2026-04-18 06:34 | 42.58510 | 18.47847 | 28976 ft | 281 kts | 13° |
| 2026-04-18 06:35 | 42.60357 | 18.48661 | 28976 ft | 278 kts | 13° |
| 2026-04-18 06:35 | 42.62187 | 18.49468 | 28978 ft | 276 kts | 13° |
| 2026-04-18 06:35 | 42.64011 | 18.50272 | 28983 ft | 275 kts | 13° |
| 2026-04-18 06:35 | 42.65826 | 18.51073 | 28989 ft | 274 kts | 13° |
| 2026-04-18 06:36 | 42.67634 | 18.51870 | 28999 ft | 273 kts | 13° |
| 2026-04-18 06:36 | 42.69437 | 18.52667 | 28994 ft | 272 kts | 13° |
| 2026-04-18 06:36 | 42.71232 | 18.53461 | 29006 ft | 271 kts | 13° |
| 2026-04-18 06:36 | 42.73014 | 18.54249 | 29008 ft | 268 kts | 13° |
| 2026-04-18 06:37 | 42.74785 | 18.55033 | 29010 ft | 267 kts | 13° |
| 2026-04-18 06:37 | 42.76545 | 18.55812 | 29008 ft | 266 kts | 13° |
| 2026-04-18 06:37 | 42.78300 | 18.56591 | 29015 ft | 265 kts | 13° |
| 2026-04-18 06:37 | 42.80049 | 18.57366 | 29015 ft | 264 kts | 12° |
| 2026-04-18 06:38 | 42.81793 | 18.58137 | 29017 ft | 263 kts | 13° |
| 2026-04-18 06:38 | 42.83531 | 18.58909 | 29018 ft | 262 kts | 13° |
| 2026-04-18 06:38 | 42.85266 | 18.59680 | 29024 ft | 262 kts | 12° |
| 2026-04-18 06:38 | 42.86996 | 18.60450 | 29025 ft | 261 kts | 12° |
| 2026-04-18 06:39 | 42.88723 | 18.61216 | 29028 ft | 261 kts | 13° |
| 2026-04-18 06:39 | 42.90449 | 18.61984 | 29029 ft | 261 kts | 13° |
| 2026-04-18 06:39 | 42.92171 | 18.62753 | 29036 ft | 260 kts | 13° |
| 2026-04-18 06:39 | 42.93890 | 18.63518 | 29035 ft | 259 kts | 13° |
| 2026-04-18 06:40 | 42.95582 | 18.64271 | 29038 ft | 259 kts | 13° |
| 2026-04-18 06:40 | 42.97295 | 18.65035 | 29036 ft | 259 kts | 12° |
| 2026-04-18 06:40 | 42.99006 | 18.65799 | 29038 ft | 259 kts | 13° |
| 2026-04-18 06:40 | 43.00717 | 18.66562 | 29045 ft | 259 kts | 12° |
| 2026-04-18 06:41 | 43.02426 | 18.67326 | 29045 ft | 259 kts | 13° |
| 2026-04-18 06:41 | 43.04136 | 18.68092 | 29044 ft | 258 kts | 13° |
| 2026-04-18 06:41 | 43.05846 | 18.68856 | 29045 ft | 258 kts | 12° |
| 2026-04-18 06:41 | 43.07556 | 18.69621 | 29049 ft | 259 kts | 12° |
| 2026-04-18 06:42 | 43.09263 | 18.70385 | 29047 ft | 258 kts | 12° |
| 2026-04-18 06:42 | 43.10976 | 18.71153 | 29057 ft | 259 kts | 12° |
| 2026-04-18 06:42 | 43.12687 | 18.71920 | 29058 ft | 259 kts | 12° |
| 2026-04-18 06:42 | 43.14400 | 18.72689 | 29066 ft | 259 kts | 12° |
| 2026-04-18 06:43 | 43.16116 | 18.73460 | 29067 ft | 259 kts | 12° |
| 2026-04-18 06:43 | 43.17832 | 18.74230 | 29072 ft | 260 kts | 12° |
| 2026-04-18 06:43 | 43.19553 | 18.75002 | 29070 ft | 261 kts | 12° |
| 2026-04-18 06:43 | 43.21277 | 18.75779 | 29078 ft | 260 kts | 12° |
| 2026-04-18 06:44 | 43.22995 | 18.76554 | 29079 ft | 260 kts | 12° |
| 2026-04-18 06:44 | 43.24710 | 18.77324 | 29079 ft | 259 kts | 12° |
| 2026-04-18 06:44 | 43.26426 | 18.78096 | 29088 ft | 261 kts | 12° |
| 2026-04-18 06:44 | 43.28147 | 18.78875 | 29072 ft | 259 kts | 11° |
| 2026-04-18 06:45 | 43.29273 | 18.79384 | 29088 ft | 256 kts | 11° |
| 2026-04-18 06:45 | 43.31514 | 18.80394 | 29090 ft | 256 kts | 12° |
| 2026-04-18 06:45 | 43.32661 | 18.80908 | 29091 ft | 256 kts | 11° |
| 2026-04-18 06:45 | 43.34909 | 18.81924 | 29095 ft | 258 kts | 11° |
| 2026-04-18 06:46 | 43.36612 | 18.82695 | 29091 ft | 258 kts | 12° |
| 2026-04-18 06:46 | 43.38319 | 18.83469 | 29089 ft | 258 kts | 12° |
| 2026-04-18 06:46 | 43.40018 | 18.84237 | 29090 ft | 258 kts | 12° |
| 2026-04-18 06:46 | 43.41170 | 18.84758 | 29091 ft | 258 kts | 12° |
| 2026-04-18 06:47 | 43.42874 | 18.85531 | 29094 ft | 258 kts | 12° |
| 2026-04-18 06:47 | 43.44555 | 18.86292 | 29096 ft | 258 kts | 12° |
| 2026-04-18 06:47 | 43.46258 | 18.87066 | 29090 ft | 258 kts | 12° |
| 2026-04-18 06:47 | 43.47964 | 18.87841 | 29088 ft | 258 kts | 12° |
| 2026-04-18 06:48 | 43.49673 | 18.88616 | 29094 ft | 259 kts | 12° |
| 2026-04-18 06:48 | 43.51381 | 18.89393 | 29092 ft | 258 kts | 11° |
| 2026-04-18 06:48 | 43.53085 | 18.90166 | 29094 ft | 258 kts | 12° |
| 2026-04-18 06:48 | 43.54785 | 18.90942 | 29092 ft | 257 kts | 12° |
| 2026-04-18 06:49 | 43.56483 | 18.91714 | 29096 ft | 257 kts | 12° |
| 2026-04-18 06:49 | 43.58175 | 18.92484 | 29099 ft | 257 kts | 12° |
| 2026-04-18 06:49 | 43.59874 | 18.93259 | 29104 ft | 257 kts | 12° |
| 2026-04-18 06:49 | 43.61578 | 18.94036 | 29106 ft | 258 kts | 12° |
| 2026-04-18 06:50 | 43.63286 | 18.94815 | 29105 ft | 259 kts | 12° |
| 2026-04-18 06:50 | 43.64993 | 18.95594 | 29105 ft | 258 kts | 12° |
| 2026-04-18 06:50 | 43.66695 | 18.96373 | 29104 ft | 258 kts | 11° |
| 2026-04-18 06:50 | 43.68396 | 18.97152 | 29104 ft | 257 kts | 11° |
| 2026-04-18 06:51 | 43.70091 | 18.97925 | 29109 ft | 257 kts | 12° |
| 2026-04-18 06:51 | 43.71793 | 18.98703 | 29106 ft | 257 kts | 11° |
| 2026-04-18 06:51 | 43.73486 | 18.99480 | 29109 ft | 257 kts | 12° |
| 2026-04-18 06:51 | 43.75190 | 19.00260 | 29108 ft | 258 kts | 12° |
| 2026-04-18 06:52 | 43.76887 | 19.01039 | 29102 ft | 257 kts | 12° |
| 2026-04-18 06:52 | 43.78589 | 19.01819 | 29093 ft | 258 kts | 12° |
| 2026-04-18 06:52 | 43.80291 | 19.02601 | 29099 ft | 257 kts | 12° |
| 2026-04-18 06:52 | 43.81989 | 19.03377 | 29097 ft | 257 kts | 12° |
| 2026-04-18 06:53 | 43.83663 | 19.04152 | 29109 ft | 256 kts | 12° |
| 2026-04-18 06:53 | 43.85354 | 19.04930 | 29109 ft | 256 kts | 12° |
| 2026-04-18 06:53 | 43.87047 | 19.05707 | 29109 ft | 256 kts | 12° |
| 2026-04-18 06:53 | 43.88740 | 19.06486 | 29110 ft | 257 kts | 12° |
| 2026-04-18 06:54 | 43.90433 | 19.07267 | 29105 ft | 257 kts | 12° |
| 2026-04-18 06:54 | 43.92127 | 19.08047 | 29104 ft | 257 kts | 12° |
| 2026-04-18 06:54 | 43.93819 | 19.08827 | 29105 ft | 257 kts | 12° |
| 2026-04-18 06:54 | 43.95514 | 19.09610 | 29106 ft | 257 kts | 12° |
| 2026-04-18 06:55 | 43.97215 | 19.10394 | 29113 ft | 257 kts | 13° |
| 2026-04-18 06:55 | 43.98910 | 19.11178 | 29115 ft | 257 kts | 13° |
| 2026-04-18 06:55 | 44.00610 | 19.11965 | 29115 ft | 258 kts | 13° |
| 2026-04-18 06:55 | 44.02309 | 19.12751 | 29116 ft | 257 kts | 13° |
| 2026-04-18 06:56 | 44.03251 | 19.13187 | 29117 ft | 257 kts | 13° |
| 2026-04-18 06:56 | 44.04631 | 19.13818 | 29116 ft | 257 kts | 12° |
| 2026-04-18 06:56 | 44.06333 | 19.14599 | 29119 ft | 258 kts | 13° |
| 2026-04-18 06:57 | 44.08037 | 19.15399 | 29119 ft | 259 kts | 13° |
| 2026-04-18 06:57 | 44.11430 | 19.16980 | 29119 ft | 259 kts | 13° |
| 2026-04-18 06:57 | 44.13142 | 19.17772 | 29119 ft | 259 kts | 13° |
| 2026-04-18 06:58 | 44.14861 | 19.18510 | 29121 ft | 259 kts | 12° |
| 2026-04-18 06:58 | 44.16588 | 19.19265 | 29120 ft | 260 kts | 13° |
| 2026-04-18 06:58 | 44.18310 | 19.20041 | 29121 ft | 260 kts | 13° |
| 2026-04-18 06:58 | 44.20036 | 19.20793 | 29121 ft | 261 kts | 13° |
| 2026-04-18 06:59 | 44.21769 | 19.21542 | 29125 ft | 261 kts | 13° |
| 2026-04-18 06:59 | 44.23503 | 19.22297 | 29124 ft | 261 kts | 13° |
| 2026-04-18 06:59 | 44.25234 | 19.23054 | 29126 ft | 261 kts | 13° |
| 2026-04-18 06:59 | 44.26966 | 19.23810 | 29125 ft | 261 kts | 13° |
| 2026-04-18 07:00 | 44.28698 | 19.24564 | 29132 ft | 261 kts | 13° |
| 2026-04-18 07:00 | 44.30431 | 19.25321 | 29133 ft | 261 kts | 13° |
| 2026-04-18 07:00 | 44.32164 | 19.26079 | 29152 ft | 261 kts | 13° |
| 2026-04-18 07:00 | 44.33899 | 19.26837 | 29135 ft | 261 kts | 13° |
| 2026-04-18 07:01 | 44.35637 | 19.27598 | 29135 ft | 262 kts | 14° |
| 2026-04-18 07:01 | 44.37378 | 19.28361 | 29143 ft | 263 kts | 14° |
| 2026-04-18 07:01 | 44.39123 | 19.29126 | 29143 ft | 263 kts | 14° |
| 2026-04-18 07:01 | 44.40869 | 19.29891 | 29146 ft | 263 kts | 14° |
| 2026-04-18 07:02 | 44.42619 | 19.30659 | 29140 ft | 264 kts | 14° |
| 2026-04-18 07:02 | 44.44371 | 19.31428 | 29141 ft | 264 kts | 14° |
| 2026-04-18 07:02 | 44.46126 | 19.32199 | 29140 ft | 264 kts | 14° |
| 2026-04-18 07:02 | 44.47884 | 19.32961 | 29142 ft | 264 kts | 13° |
| 2026-04-18 07:03 | 44.49648 | 19.33699 | 29142 ft | 265 kts | 13° |
| 2026-04-18 07:03 | 44.51415 | 19.34430 | 29143 ft | 265 kts | 13° |
| 2026-04-18 07:03 | 44.53192 | 19.35145 | 29142 ft | 266 kts | 13° |
| 2026-04-18 07:03 | 44.54974 | 19.35852 | 29142 ft | 266 kts | 13° |
| 2026-04-18 07:04 | 44.56760 | 19.36558 | 29145 ft | 267 kts | 13° |
| 2026-04-18 07:04 | 44.58550 | 19.37264 | 29144 ft | 267 kts | 13° |
| 2026-04-18 07:04 | 44.60345 | 19.37970 | 29144 ft | 268 kts | 13° |
| 2026-04-18 07:04 | 44.62112 | 19.38666 | 29145 ft | 267 kts | 13° |
| 2026-04-18 07:05 | 44.63903 | 19.39373 | 29144 ft | 268 kts | 13° |
| 2026-04-18 07:05 | 44.65704 | 19.40083 | 29143 ft | 268 kts | 13° |
| 2026-04-18 07:05 | 44.67501 | 19.40791 | 29143 ft | 269 kts | 13° |
| 2026-04-18 07:05 | 44.69301 | 19.41501 | 29155 ft | 269 kts | 13° |
| 2026-04-18 07:06 | 44.71105 | 19.42203 | 29145 ft | 269 kts | 13° |
| 2026-04-18 07:06 | 44.72918 | 19.42889 | 29145 ft | 270 kts | 13° |
| 2026-04-18 07:06 | 44.74735 | 19.43570 | 29144 ft | 271 kts | 13° |
| 2026-04-18 07:06 | 44.76556 | 19.44253 | 29144 ft | 271 kts | 13° |
| 2026-04-18 07:07 | 44.78378 | 19.44936 | 29144 ft | 271 kts | 13° |
| 2026-04-18 07:07 | 44.80203 | 19.45621 | 29145 ft | 272 kts | 13° |
| 2026-04-18 07:07 | 44.82034 | 19.46291 | 29143 ft | 272 kts | 10° |
| 2026-04-18 07:07 | 44.83911 | 19.46520 | 29145 ft | 271 kts | 360° |